East End, Maryland
Current Conditions -  °F | °C
As of 7:45 AM on Wednesday 26 Nov 2014 (Local Time) from KMTN Reporting Station
Moderate Rain Moderate Rain  
Wind Chill: 43°   Ceiling: 1000
Heat Index: 43°   Visibility: 2mi
Dew Point: 43°   Wind: 0mph
Humidity: 100%   Direction: NA
Pressure: 30.1"   Gusts: NA
Location:  39.3025°N, 76.5641°W
Report Text: KMTN 261245Z 00000KT 2SM RA BKN010 OVC015 06/06 A3010
Loading
Personal Weather Stations






























Interactive Weather Map New forecast layout! Learn more

10-Day Weather Forecast

Advertisements
Track Severe Weather on mobile